Terminal Aerodrome Forecast
Issued by NWS Louisville, KY

Home | Current Version | Previous Version | Text Only | Print | Product List | Glossary On
Versions: 1 2 3 4 5 6 7 8 9 10 11 12 13 14 15 16 17 18
000
FTUS43 KLMK 201700
TAFLEX
TAF
KLEX 201721Z 2018/2118 25007KT P6SM SCT030 SCT250
     FM202000 26007KT P6SM VCTS SCT040CB BKN250
     FM210600 22004KT P6SM SCT050 BKN250
     FM211400 23007KT P6SM SCT040 BKN250=

USA.gov is the U.S. government's official web portal to all federal, state and local government web resources and services.